Time;durP1;ratioP1;P1;durP2;ratioP2;P2;SDS_P1;SDS_P2;PMS_P1;PMS_P2;Temp;Humidity;BMP_temperature;BMP_pressure;BME280_temperature;BME280_humidity;BME280_pressure;Samples;Min_cycle;Max_cycle;Signal;HPM_P1;HPM_P2
2023/05/20 00:02:21;;;;;;;29.33;22.67;;;12.40;67.20;;;;;;4983952;28;117837;-79
2023/05/20 00:04:48;;;;;;;30.33;22.88;;;12.30;67.40;;;;;;4985549;28;114668;-78
2023/05/20 00:07:15;;;;;;;31.73;23.30;;;12.40;67.40;;;;;;4986315;28;114424;-78
2023/05/20 00:09:42;;;;;;;36.15;26.13;;;12.50;67.20;;;;;;4986348;28;115515;-79
2023/05/20 00:12:09;;;;;;;31.75;23.08;;;12.50;67.30;;;;;;4985404;28;115323;-78
2023/05/20 00:14:36;;;;;;;35.38;25.42;;;12.50;67.20;;;;;;4989726;28;114750;-78
2023/05/20 00:17:04;;;;;;;28.25;21.88;;;12.60;67.20;;;;;;4990697;28;114210;-78
2023/05/20 00:19:31;;;;;;;29.58;21.35;;;12.50;66.90;;;;;;4986213;28;114326;-78
2023/05/20 00:21:59;;;;;;;30.80;23.52;;;12.50;67.10;;;;;;4985310;28;115724;-78
2023/05/20 00:24:26;;;;;;;30.20;22.98;;;12.50;67.20;;;;;;4984923;28;114677;-78
2023/05/20 00:26:53;;;;;;;28.38;21.85;;;12.50;67.00;;;;;;4986038;28;114397;-78
2023/05/20 00:29:21;;;;;;;31.65;22.90;;;12.50;67.00;;;;;;4986171;28;114255;-77
2023/05/20 00:31:48;;;;;;;25.13;19.35;;;12.60;66.90;;;;;;4985273;28;114956;-78
2023/05/20 00:34:15;;;;;;;34.00;24.95;;;12.70;66.40;;;;;;4983817;28;115164;-77
2023/05/20 00:36:42;;;;;;;28.17;21.45;;;12.70;66.80;;;;;;4985656;28;114144;-77
2023/05/20 00:39:10;;;;;;;27.73;21.85;;;12.70;66.50;;;;;;4985535;28;114650;-78
2023/05/20 00:41:38;;;;;;;25.77;19.88;;;12.70;66.40;;;;;;4984474;28;115063;-78
2023/05/20 00:44:05;;;;;;;26.50;20.48;;;12.70;66.10;;;;;;5000510;28;114696;-78
2023/05/20 00:46:32;;;;;;;23.48;18.90;;;12.80;66.00;;;;;;4985737;28;114182;-77
2023/05/20 00:48:59;;;;;;;32.13;24.88;;;12.80;65.80;;;;;;4965902;28;117141;-78
2023/05/20 00:51:26;;;;;;;33.50;24.33;;;12.80;66.40;;;;;;4983663;28;115934;-78
2023/05/20 00:53:54;;;;;;;31.05;24.05;;;12.80;66.60;;;;;;5000228;28;115149;-78
2023/05/20 00:56:22;;;;;;;26.98;20.38;;;12.70;66.60;;;;;;5001033;28;114551;-79
2023/05/20 00:58:50;;;;;;;36.33;26.65;;;12.60;66.40;;;;;;4984324;28;114661;-78
2023/05/20 01:01:17;;;;;;;29.85;23.52;;;12.70;67.20;;;;;;4983941;28;116298;-79
2023/05/20 01:03:44;;;;;;;37.40;25.92;;;12.60;66.90;;;;;;4984410;28;114643;-78
2023/05/20 01:06:11;;;;;;;25.27;21.02;;;12.50;67.30;;;;;;4967173;28;114499;-79
2023/05/20 01:08:39;;;;;;;32.42;24.67;;;12.50;67.20;;;;;;4985432;28;114476;-79
2023/05/20 01:11:08;;;;;;;25.05;20.08;;;12.60;67.30;;;;;;4983144;28;118010;-79
2023/05/20 01:13:46;;;;;;;31.48;21.73;;;12.60;66.80;;;;;;4983428;28;118116;-80
2023/05/20 01:16:13;;;;;;;35.28;26.08;;;12.70;67.00;;;;;;4984205;28;114633;-79
2023/05/20 01:18:41;;;;;;;27.35;21.42;;;12.70;67.20;;;;;;5001096;28;114642;-79
2023/05/20 01:21:10;;;;;;;25.17;18.52;;;12.70;66.60;;;;;;4983042;28;114969;-79
2023/05/20 01:23:41;;;;;;;32.15;23.25;;;12.70;66.40;;;;;;4983049;28;115266;-79
2023/05/20 01:26:15;;;;;;;29.27;21.92;;;12.70;66.70;;;;;;4984475;28;114334;-79
2023/05/20 01:28:44;;;;;;;32.28;21.25;;;12.70;66.50;;;;;;4998970;28;116196;-80
2023/05/20 01:31:14;;;;;;;25.23;19.85;;;12.70;66.40;;;;;;4999359;28;115014;-79
2023/05/20 01:33:41;;;;;;;25.50;20.02;;;12.70;66.10;;;;;;4999366;28;114727;-79
2023/05/20 01:36:09;;;;;;;32.10;22.60;;;12.70;66.10;;;;;;5000527;28;114257;-79
2023/05/20 01:38:37;;;;;;;29.63;22.88;;;12.70;66.30;;;;;;4999333;28;114517;-78
2023/05/20 01:41:05;;;;;;;29.02;22.30;;;12.70;66.30;;;;;;4998891;28;114999;-79
2023/05/20 01:43:32;;;;;;;35.33;24.80;;;12.70;66.10;;;;;;4999623;28;114668;-79
2023/05/20 01:46:01;;;;;;;28.58;21.30;;;12.80;66.60;;;;;;4983409;28;114632;-79
2023/05/20 01:48:29;;;;;;;30.38;20.85;;;12.80;66.30;;;;;;4982979;28;114307;-79
2023/05/20 01:50:56;;;;;;;27.13;21.20;;;12.80;66.10;;;;;;4982171;28;115835;-79
2023/05/20 01:53:23;;;;;;;31.85;22.15;;;12.70;66.20;;;;;;4999723;28;114899;-78
2023/05/20 01:55:50;;;;;;;32.63;22.55;;;12.70;66.30;;;;;;4988394;28;114480;-78
2023/05/20 01:58:18;;;;;;;26.98;20.05;;;12.70;66.20;;;;;;4970080;28;116918;-78
2023/05/20 02:00:45;;;;;;;28.60;21.00;;;12.70;66.00;;;;;;5002767;28;114981;-79
2023/05/20 02:03:12;;;;;;;30.05;22.33;;;12.70;66.10;;;;;;5002979;28;114653;-78
2023/05/20 02:05:40;;;;;;;37.63;25.02;;;12.70;66.10;;;;;;4987014;28;114185;-79
2023/05/20 02:08:10;;;;;;;30.05;22.73;;;12.80;66.30;;;;;;4988887;28;114283;-78
2023/05/20 02:10:37;;;;;;;33.35;22.65;;;12.80;65.90;;;;;;4971065;28;114954;-79
2023/05/20 02:13:05;;;;;;;27.52;20.38;;;12.80;66.00;;;;;;4993041;28;116378;-79
2023/05/20 02:15:33;;;;;;;34.30;23.58;;;12.80;65.80;;;;;;4992937;28;115296;-79
2023/05/20 02:18:01;;;;;;;33.75;23.17;;;12.80;65.90;;;;;;4986744;28;114431;-79
2023/05/20 02:20:28;;;;;;;29.08;19.90;;;12.80;65.80;;;;;;4985939;28;117910;-79
2023/05/20 02:22:55;;;;;;;36.30;24.13;;;12.80;65.70;;;;;;4986095;28;115394;-79
2023/05/20 02:25:23;;;;;;;29.35;21.92;;;12.80;66.00;;;;;;5002961;28;114401;-79
2023/05/20 02:27:51;;;;;;;25.63;20.40;;;12.80;65.80;;;;;;4986462;28;114452;-80
2023/05/20 02:30:19;;;;;;;27.30;19.80;;;12.80;65.60;;;;;;4985208;28;114936;-79
2023/05/20 02:32:47;;;;;;;35.38;24.83;;;12.90;65.50;;;;;;4987036;28;114601;-79
2023/05/20 02:35:15;;;;;;;30.42;20.13;;;12.90;65.70;;;;;;5003710;28;114160;-79
2023/05/20 02:37:43;;;;;;;26.08;20.08;;;12.90;65.40;;;;;;4987877;28;114302;-79
2023/05/20 02:40:10;;;;;;;28.20;20.60;;;12.90;65.30;;;;;;4986602;28;115160;-79
2023/05/20 02:42:39;;;;;;;29.23;20.63;;;13.00;65.10;;;;;;5002417;28;114798;-79
2023/05/20 02:45:07;;;;;;;28.70;20.25;;;13.00;65.00;;;;;;4987863;28;114484;-79
2023/05/20 02:47:34;;;;;;;27.88;20.60;;;13.00;64.90;;;;;;4986905;28;117097;-78
2023/05/20 02:50:04;;;;;;;30.48;21.65;;;13.00;64.90;;;;;;4984684;28;115000;-79
2023/05/20 02:52:31;;;;;;;27.42;20.42;;;13.00;64.90;;;;;;4967947;28;114841;-79
2023/05/20 02:54:58;;;;;;;24.88;18.88;;;13.00;64.90;;;;;;4985363;28;114439;-78
2023/05/20 02:57:27;;;;;;;31.55;22.65;;;13.00;64.70;;;;;;4982135;28;114675;-79
2023/05/20 02:59:55;;;;;;;33.80;24.08;;;13.00;64.80;;;;;;5000969;28;114842;-79
2023/05/20 03:02:23;;;;;;;32.47;22.95;;;13.10;65.10;;;;;;4983921;28;114786;-79
2023/05/20 03:04:53;;;;;;;30.40;22.60;;;13.00;65.10;;;;;;4966078;28;114641;-78
2023/05/20 03:07:21;;;;;;;34.88;24.10;;;12.90;65.20;;;;;;4985905;28;114615;-79
2023/05/20 03:09:48;;;;;;;29.20;21.35;;;12.80;65.60;;;;;;4985181;28;114925;-79
2023/05/20 03:12:16;;;;;;;30.40;22.48;;;12.70;65.60;;;;;;5000331;28;114676;-79
2023/05/20 03:14:43;;;;;;;31.45;21.75;;;12.70;66.00;;;;;;4985961;28;114558;-78
2023/05/20 03:17:12;;;;;;;35.45;25.42;;;12.70;66.00;;;;;;5001234;28;114288;-79
2023/05/20 03:19:39;;;;;;;31.13;22.08;;;12.60;66.30;;;;;;4997829;28;115779;-79
2023/05/20 03:22:06;;;;;;;26.98;19.67;;;12.60;66.10;;;;;;4965910;28;117405;-79
2023/05/20 03:24:33;;;;;;;35.83;24.88;;;12.60;66.00;;;;;;4984525;28;114443;-79
2023/05/20 03:27:00;;;;;;;32.75;23.45;;;12.70;66.30;;;;;;4998262;28;114321;-79
2023/05/20 03:29:28;;;;;;;30.70;21.55;;;12.70;66.10;;;;;;4999356;28;115081;-79
2023/05/20 03:31:55;;;;;;;31.13;21.48;;;12.60;66.20;;;;;;4984464;28;116179;-79
2023/05/20 03:34:23;;;;;;;32.00;21.75;;;12.70;66.10;;;;;;4984322;28;114384;-79
2023/05/20 03:36:51;;;;;;;26.40;19.40;;;12.70;66.20;;;;;;4967497;28;114559;-79
2023/05/20 03:39:18;;;;;;;28.55;20.10;;;12.60;66.00;;;;;;4982683;28;118612;-79
2023/05/20 03:41:45;;;;;;;27.02;20.52;;;12.60;66.20;;;;;;4999571;28;115186;-79
2023/05/20 03:44:12;;;;;;;27.73;20.45;;;12.60;66.30;;;;;;4984115;28;116081;-78
2023/05/20 03:46:40;;;;;;;31.23;21.95;;;12.60;66.10;;;;;;4984169;28;114484;-79
2023/05/20 03:49:07;;;;;;;30.88;22.42;;;12.70;66.20;;;;;;4955290;28;1223610;-79
2023/05/20 03:51:34;;;;;;;32.83;22.48;;;12.70;66.00;;;;;;4998106;28;114781;-79
2023/05/20 03:54:07;;;;;;;27.98;20.05;;;12.70;66.00;;;;;;4978140;28;115903;-79
2023/05/20 03:56:35;;;;;;;32.60;21.77;;;12.70;65.80;;;;;;4982484;28;117074;-78
2023/05/20 03:59:02;;;;;;;27.85;19.85;;;12.70;65.90;;;;;;5001093;28;114943;-79
2023/05/20 04:01:30;;;;;;;31.50;22.38;;;12.70;65.80;;;;;;4985573;28;114748;-79
2023/05/20 04:03:58;;;;;;;31.75;22.92;;;12.60;66.20;;;;;;4986204;28;114529;-79
2023/05/20 04:06:26;;;;;;;32.38;22.05;;;12.60;66.30;;;;;;4985094;28;115205;-78
2023/05/20 04:08:54;;;;;;;33.60;22.75;;;12.50;66.40;;;;;;4984805;28;115068;-78
2023/05/20 04:11:21;;;;;;;27.15;20.15;;;12.40;66.80;;;;;;4999236;28;115824;-79
2023/05/20 04:13:49;;;;;;;27.20;20.02;;;12.30;66.80;;;;;;4991757;28;114419;-79
2023/05/20 04:16:17;;;;;;;34.13;23.02;;;12.30;66.70;;;;;;4984343;28;114215;-78
2023/05/20 04:18:44;;;;;;;30.05;20.63;;;12.20;67.20;;;;;;5000459;28;115422;-79
2023/05/20 04:21:13;;;;;;;28.65;20.58;;;12.20;67.20;;;;;;4967552;28;114762;-79
2023/05/20 04:23:41;;;;;;;26.38;18.80;;;12.20;67.20;;;;;;4985095;28;114565;-78
2023/05/20 04:26:08;;;;;;;27.85;20.00;;;12.30;67.00;;;;;;4986100;28;114185;-79
2023/05/20 04:28:36;;;;;;;30.23;21.45;;;12.30;67.10;;;;;;4985085;28;114996;-79
2023/05/20 04:31:03;;;;;;;27.15;20.13;;;12.40;66.80;;;;;;5000035;28;114538;-79
2023/05/20 04:33:36;;;;;;;26.77;19.50;;;12.50;66.70;;;;;;4968512;28;114784;-80
2023/05/20 04:36:06;;;;;;;29.73;20.13;;;12.50;66.60;;;;;;4985265;28;114742;-80
2023/05/20 04:38:34;;;;;;;26.65;19.38;;;12.50;66.70;;;;;;4983206;28;117879;-79
2023/05/20 04:41:02;;;;;;;30.20;19.75;;;12.40;66.60;;;;;;4983644;28;116633;-78
2023/05/20 04:43:30;;;;;;;29.30;19.63;;;12.40;66.60;;;;;;5001257;28;114433;-79
2023/05/20 04:45:58;;;;;;;29.13;20.80;;;12.50;66.60;;;;;;5000715;28;114310;-79
2023/05/20 04:48:26;;;;;;;31.02;20.73;;;12.50;66.60;;;;;;4967100;28;115098;-79
2023/05/20 04:50:53;;;;;;;27.85;19.35;;;12.50;66.50;;;;;;4983228;28;116355;-79
2023/05/20 04:53:20;;;;;;;26.90;19.48;;;12.50;66.50;;;;;;4984132;28;114498;-79
2023/05/20 04:55:48;;;;;;;31.35;20.73;;;12.50;66.50;;;;;;4982741;28;114634;-80
2023/05/20 04:58:17;;;;;;;26.67;18.33;;;12.50;66.70;;;;;;4980839;28;116494;-79
2023/05/20 05:00:44;;;;;;;32.47;21.40;;;12.50;66.60;;;;;;4981248;28;115229;-80
2023/05/20 05:03:12;;;;;;;31.20;21.30;;;12.50;66.70;;;;;;4982278;28;114395;-78
2023/05/20 05:05:39;;;;;;;32.95;22.27;;;12.50;66.60;;;;;;4981941;28;114538;-78
2023/05/20 05:08:07;;;;;;;31.20;20.77;;;12.50;66.80;;;;;;4981859;28;115174;-78
2023/05/20 05:10:39;;;;;;;32.42;20.98;;;12.40;66.70;;;;;;4993698;28;115095;-78
2023/05/20 05:13:06;;;;;;;25.30;18.27;;;12.30;67.00;;;;;;4983582;28;114501;-79
2023/05/20 05:15:33;;;;;;;29.30;20.23;;;12.30;66.80;;;;;;4982228;28;114575;-78
2023/05/20 05:18:05;;;;;;;28.77;19.58;;;12.50;66.90;;;;;;4998533;28;114894;-79
2023/05/20 05:20:34;;;;;;;27.35;19.23;;;12.50;66.70;;;;;;4997516;28;115128;-79
2023/05/20 05:23:02;;;;;;;33.95;22.45;;;12.60;66.60;;;;;;4983592;28;114595;-79
2023/05/20 05:25:29;;;;;;;27.35;19.00;;;12.60;66.70;;;;;;4982523;28;114544;-79
2023/05/20 05:27:58;;;;;;;32.67;21.98;;;12.40;66.60;;;;;;4978689;28;114953;-79
2023/05/20 05:30:26;;;;;;;30.65;20.88;;;12.40;67.10;;;;;;4980480;28;117096;-78
2023/05/20 05:32:53;;;;;;;29.88;20.77;;;12.40;67.00;;;;;;4981532;28;114460;-78
2023/05/20 05:35:21;;;;;;;35.25;24.52;;;12.30;67.10;;;;;;4998773;28;114738;-78
2023/05/20 05:37:48;;;;;;;24.58;17.38;;;12.30;67.50;;;;;;4996896;28;117932;-77
2023/05/20 05:40:16;;;;;;;29.52;20.67;;;12.30;67.20;;;;;;4982651;28;114588;-78
2023/05/20 05:42:43;;;;;;;27.63;20.02;;;12.40;67.30;;;;;;4965383;28;114579;-78
2023/05/20 05:45:11;;;;;;;27.88;19.30;;;12.50;66.90;;;;;;4981802;28;116062;-79
2023/05/20 05:47:38;;;;;;;24.10;17.38;;;12.50;66.90;;;;;;4980275;28;114859;-78
2023/05/20 05:50:06;;;;;;;26.98;18.73;;;12.50;66.60;;;;;;4996877;28;114666;-78
2023/05/20 05:52:34;;;;;;;26.83;19.20;;;12.60;66.60;;;;;;4997170;28;115816;-78
2023/05/20 05:55:05;;;;;;;28.48;18.13;;;12.50;66.60;;;;;;4998971;28;114533;-78
2023/05/20 05:57:34;;;;;;;27.40;20.05;;;12.40;66.60;;;;;;4980763;28;114983;-78
2023/05/20 06:00:03;;;;;;;27.65;20.00;;;12.30;66.90;;;;;;4980849;28;114802;-79
2023/05/20 06:02:44;;;;;;;24.05;17.52;;;12.30;67.10;;;;;;4979433;28;114356;-78
2023/05/20 06:05:16;;;;;;;23.98;17.20;;;12.20;66.90;;;;;;4980911;28;119006;-79
2023/05/20 06:07:45;;;;;;;24.45;17.67;;;12.40;66.80;;;;;;4982325;28;114823;-78
2023/05/20 06:10:12;;;;;;;24.40;17.80;;;12.50;66.70;;;;;;4998387;28;117191;-78
2023/05/20 06:12:42;;;;;;;23.50;17.30;;;12.50;66.40;;;;;;4987246;28;114292;-78
2023/05/20 06:15:12;;;;;;;22.67;16.95;;;12.60;66.20;;;;;;5006631;28;115826;-78
2023/05/20 06:17:40;;;;;;;23.40;16.42;;;12.60;66.00;;;;;;5000492;28;115362;-79
2023/05/20 06:20:08;;;;;;;23.55;16.77;;;12.70;66.00;;;;;;4980969;28;114738;-79
2023/05/20 06:22:35;;;;;;;25.35;17.23;;;12.70;65.90;;;;;;4981461;28;114508;-79
2023/05/20 06:25:03;;;;;;;27.13;19.08;;;12.70;65.90;;;;;;4998114;28;117160;-79
2023/05/20 06:27:33;;;;;;;25.52;19.20;;;12.70;66.00;;;;;;4964743;28;115442;-79
2023/05/20 06:30:00;;;;;;;27.60;19.70;;;12.70;66.10;;;;;;4995013;28;114854;-79
2023/05/20 06:32:29;;;;;;;26.17;18.45;;;12.70;66.00;;;;;;4981387;28;114451;-79
2023/05/20 06:34:59;;;;;;;27.27;19.60;;;12.70;65.90;;;;;;4961764;28;114624;-79
2023/05/20 06:37:26;;;;;;;25.70;19.52;;;12.70;66.00;;;;;;4997065;28;116253;-79
2023/05/20 06:39:58;;;;;;;23.17;17.42;;;12.70;66.00;;;;;;4982502;28;114620;-79
2023/05/20 06:42:25;;;;;;;24.70;19.17;;;12.70;65.90;;;;;;4984285;28;114307;-80
2023/05/20 06:45:05;;;;;;;23.45;17.85;;;12.70;65.80;;;;;;4979273;28;114331;-79
2023/05/20 06:47:36;;;;;;;22.85;17.35;;;12.70;65.70;;;;;;4982267;28;115009;-80
2023/05/20 06:50:04;;;;;;;29.55;22.08;;;12.80;65.50;;;;;;4964316;28;114714;-79
2023/05/20 06:52:32;;;;;;;24.67;18.40;;;12.90;65.60;;;;;;4962497;28;115275;-80
2023/05/20 06:54:59;;;;;;;24.92;17.52;;;12.90;65.30;;;;;;5000283;28;114456;-79
2023/05/20 06:57:26;;;;;;;25.95;20.48;;;12.90;65.10;;;;;;4981912;28;115500;-79
2023/05/20 06:59:54;;;;;;;21.40;17.10;;;12.90;65.30;;;;;;4982393;28;116754;-79
2023/05/20 07:02:21;;;;;;;23.23;17.92;;;12.90;65.10;;;;;;4983269;28;114417;-79
2023/05/20 07:04:48;;;;;;;25.60;19.15;;;12.90;65.20;;;;;;4965645;28;114182;-79
2023/05/20 07:07:16;;;;;;;27.92;19.42;;;13.00;65.20;;;;;;4986791;28;115385;-79
2023/05/20 07:09:44;;;;;;;23.55;18.98;;;13.00;65.40;;;;;;4983658;28;114849;-79
2023/05/20 07:12:11;;;;;;;25.08;19.50;;;13.00;65.10;;;;;;5000910;28;114318;-79
2023/05/20 07:14:39;;;;;;;24.98;18.85;;;12.90;65.10;;;;;;4984429;28;114198;-80
2023/05/20 07:17:06;;;;;;;24.95;17.33;;;13.00;65.10;;;;;;4996732;28;117881;-79
2023/05/20 07:19:33;;;;;;;26.77;20.63;;;13.00;64.80;;;;;;4999611;28;115870;-80
2023/05/20 07:22:01;;;;;;;28.73;20.17;;;13.00;65.30;;;;;;4966251;28;116196;-79
2023/05/20 07:24:47;;;;;;;22.05;16.67;;;13.10;65.20;;;;;;4985489;28;114447;-80
2023/05/20 07:27:15;;;;;;;25.10;19.35;;;13.20;64.60;;;;;;4999683;28;116087;-80
2023/05/20 07:29:43;;;;;;;23.08;18.05;;;13.10;65.00;;;;;;4981638;28;114678;-79
2023/05/20 07:32:10;;;;;;;25.30;19.48;;;13.10;64.80;;;;;;4998566;28;115830;-80
2023/05/20 07:34:38;;;;;;;23.35;17.98;;;13.20;65.10;;;;;;4996413;28;114540;-80
2023/05/20 07:37:05;;;;;;;24.80;19.02;;;13.20;64.80;;;;;;4982195;28;117200;-79
2023/05/20 07:39:33;;;;;;;27.55;19.55;;;13.20;64.60;;;;;;4998703;28;114765;-79
2023/05/20 07:42:00;;;;;;;25.58;18.05;;;13.30;64.70;;;;;;4967340;28;114590;-80
2023/05/20 07:44:29;;;;;;;22.80;18.05;;;13.30;64.30;;;;;;4982824;28;114141;-79
2023/05/20 07:46:57;;;;;;;30.58;22.50;;;13.30;64.30;;;;;;4965874;28;116585;-79
2023/05/20 07:49:25;;;;;;;22.38;17.33;;;13.30;64.60;;;;;;4996671;28;114724;-79
2023/05/20 07:51:53;;;;;;;24.67;18.17;;;13.30;64.20;;;;;;4977827;28;114549;-79
2023/05/20 07:54:20;;;;;;;23.42;17.88;;;13.30;64.40;;;;;;4984187;28;114609;-79
2023/05/20 07:56:50;;;;;;;24.42;17.75;;;13.30;64.20;;;;;;4995390;28;115603;-80
2023/05/20 07:59:18;;;;;;;24.92;18.48;;;13.30;64.00;;;;;;4995322;28;114714;-79
2023/05/20 08:01:48;;;;;;;24.83;19.52;;;13.40;64.50;;;;;;5000707;28;114536;-79
2023/05/20 08:04:18;;;;;;;27.13;19.73;;;13.30;64.10;;;;;;4992915;28;114480;-80
2023/05/20 08:06:45;;;;;;;24.98;18.85;;;13.40;64.50;;;;;;4982300;28;114939;-80
2023/05/20 08:09:20;;;;;;;26.83;20.02;;;13.20;64.40;;;;;;4981783;28;115161;-80
2023/05/20 08:11:51;;;;;;;25.70;18.77;;;13.30;64.70;;;;;;4997171;28;114419;-80
2023/05/20 08:14:19;;;;;;;23.40;19.02;;;13.30;64.50;;;;;;4978517;28;114199;-80
2023/05/20 08:16:49;;;;;;;22.38;17.50;;;13.30;64.30;;;;;;4983148;28;115822;-80
2023/05/20 08:19:19;;;;;;;24.45;18.90;;;13.30;64.40;;;;;;4992273;28;115673;-80
2023/05/20 08:21:48;;;;;;;23.70;18.70;;;13.20;64.40;;;;;;4999186;28;114949;-80
2023/05/20 08:24:16;;;;;;;25.45;18.83;;;13.30;64.70;;;;;;5000118;28;114589;-80
2023/05/20 08:26:43;;;;;;;23.27;19.20;;;13.30;64.90;;;;;;4948665;28;119173;-80
2023/05/20 08:29:10;;;;;;;22.67;18.05;;;13.10;65.30;;;;;;4998970;28;117642;-79
2023/05/20 08:31:37;;;;;;;24.05;18.75;;;13.20;65.40;;;;;;5000142;28;114531;-78
2023/05/20 08:34:05;;;;;;;25.45;19.88;;;13.30;65.30;;;;;;4999741;28;114507;-78
2023/05/20 08:36:33;;;;;;;23.73;18.77;;;13.50;65.40;;;;;;4982998;28;114914;-78
2023/05/20 08:39:01;;;;;;;19.75;15.63;;;13.50;64.60;;;;;;4982994;28;116623;-79
2023/05/20 08:41:28;;;;;;;20.95;16.75;;;13.60;64.10;;;;;;4983872;28;114444;-79
2023/05/20 08:43:56;;;;;;;21.35;17.35;;;13.70;63.70;;;;;;4983597;28;114680;-79
2023/05/20 08:46:23;;;;;;;20.63;16.77;;;13.70;63.80;;;;;;4998656;28;114926;-79
2023/05/20 08:48:53;;;;;;;21.05;17.55;;;13.60;63.60;;;;;;4964376;28;115671;-79
2023/05/20 08:51:22;;;;;;;20.83;17.08;;;13.60;64.30;;;;;;4998498;28;114493;-79
2023/05/20 08:53:50;;;;;;;18.83;15.40;;;13.70;63.70;;;;;;4982887;28;114537;-79
2023/05/20 08:56:18;;;;;;;20.48;16.80;;;13.80;63.60;;;;;;4998576;28;114989;-79
2023/05/20 08:58:46;;;;;;;21.17;17.30;;;14.00;63.60;;;;;;4998390;28;118323;-79
2023/05/20 09:01:13;;;;;;;19.20;16.67;;;14.00;63.20;;;;;;4984740;28;114657;-79
2023/05/20 09:03:40;;;;;;;17.58;15.55;;;14.00;63.40;;;;;;4983097;28;114533;-79
2023/05/20 09:06:08;;;;;;;20.17;16.60;;;14.00;63.40;;;;;;4983303;28;115071;-79
2023/05/20 09:08:35;;;;;;;19.02;16.67;;;14.10;63.50;;;;;;4982343;28;114804;-79
2023/05/20 09:11:02;;;;;;;18.00;16.08;;;14.10;63.50;;;;;;4984343;28;114739;-79
2023/05/20 09:13:31;;;;;;;17.30;15.07;;;14.20;63.10;;;;;;4982570;28;114553;-80
2023/05/20 09:16:00;;;;;;;19.88;16.58;;;14.40;62.90;;;;;;4980961;28;115377;-80
2023/05/20 09:18:28;;;;;;;19.77;17.45;;;14.60;62.60;;;;;;4981946;28;114605;-80
2023/05/20 09:20:55;;;;;;;18.90;16.02;;;14.70;62.90;;;;;;4982685;28;114395;-80
2023/05/20 09:23:24;;;;;;;16.48;14.77;;;14.80;62.30;;;;;;4999116;28;114504;-80
2023/05/20 09:25:52;;;;;;;18.02;14.88;;;15.00;62.00;;;;;;4982911;28;115692;-80
2023/05/20 09:28:25;;;;;;;15.50;13.80;;;15.00;62.00;;;;;;4983257;28;114733;-80
2023/05/20 09:30:59;;;;;;;18.27;14.77;;;15.30;62.20;;;;;;4982545;28;114544;-80
2023/05/20 09:33:31;;;;;;;17.10;15.32;;;15.50;60.70;;;;;;4984419;28;115197;-79
2023/05/20 09:36:07;;;;;;;17.33;14.60;;;15.60;60.70;;;;;;4981646;28;115733;-79
2023/05/20 09:38:38;;;;;;;17.15;14.70;;;15.70;60.70;;;;;;4981772;28;115086;-80
2023/05/20 09:41:12;;;;;;;16.65;14.57;;;15.80;60.50;;;;;;4997660;28;114508;-79
2023/05/20 09:43:40;;;;;;;16.90;15.07;;;15.90;60.10;;;;;;4998797;28;114597;-80
2023/05/20 09:46:07;;;;;;;17.13;14.48;;;15.80;60.50;;;;;;4982474;28;114970;-80
2023/05/20 09:48:36;;;;;;;16.13;14.38;;;16.00;60.80;;;;;;4982715;28;114678;-80
2023/05/20 09:51:06;;;;;;;14.40;12.90;;;16.10;59.90;;;;;;4983778;28;114469;-80
2023/05/20 09:53:34;;;;;;;15.48;12.65;;;16.20;60.20;;;;;;4983722;28;114796;-80
2023/05/20 09:56:01;;;;;;;14.30;12.45;;;16.20;59.20;;;;;;4997496;28;115618;-80
2023/05/20 09:58:29;;;;;;;13.77;12.23;;;16.10;59.70;;;;;;4997923;28;114681;-80
2023/05/20 10:00:56;;;;;;;14.77;13.27;;;16.20;60.40;;;;;;4982654;28;114564;-80
2023/05/20 10:03:26;;;;;;;14.52;12.48;;;16.20;60.50;;;;;;4983582;28;114357;-80
2023/05/20 10:06:09;;;;;;;15.30;12.68;;;16.30;60.30;;;;;;4981026;28;116282;-80
2023/05/20 10:09:21;;;;;;;16.77;11.90;;;16.40;59.80;;;;;;4980936;28;115062;-78
2023/05/20 10:12:03;;;;;;;14.98;11.77;;;16.30;60.00;;;;;;4981129;28;114402;-79
2023/05/20 10:14:36;;;;;;;12.98;11.68;;;16.40;59.90;;;;;;4976943;28;114490;-79
2023/05/20 10:17:26;;;;;;;13.45;11.10;;;16.50;59.60;;;;;;4984800;28;115384;-79
2023/05/20 10:19:58;;;;;;;13.88;11.27;;;16.50;59.70;;;;;;4993732;28;115848;-79
2023/05/20 10:22:27;;;;;;;12.35;11.05;;;16.70;58.70;;;;;;5009975;28;114584;-79
2023/05/20 10:24:59;;;;;;;12.82;11.52;;;16.70;59.20;;;;;;4987336;28;114702;-79
2023/05/20 10:27:26;;;;;;;13.55;12.15;;;16.70;59.60;;;;;;4985273;28;114986;-79
2023/05/20 10:29:56;;;;;;;13.10;11.40;;;16.70;60.10;;;;;;4984922;28;114631;-79
2023/05/20 10:32:32;;;;;;;13.27;11.98;;;16.80;60.80;;;;;;4986287;28;114420;-78
2023/05/20 10:35:03;;;;;;;12.63;11.32;;;17.00;59.90;;;;;;5001889;28;114385;-79
2023/05/20 10:37:32;;;;;;;13.77;11.90;;;17.00;60.10;;;;;;4984248;28;115052;-79
2023/05/20 10:40:13;;;;;;;14.20;12.25;;;17.10;60.20;;;;;;4985434;28;115011;-80
2023/05/20 10:42:40;;;;;;;12.98;11.10;;;17.20;60.00;;;;;;5001333;28;114574;-79
2023/05/20 10:45:08;;;;;;;14.40;12.60;;;17.10;59.80;;;;;;4986400;28;114505;-79
2023/05/20 10:47:35;;;;;;;13.65;12.20;;;17.10;60.10;;;;;;5000855;28;114941;-80
2023/05/20 10:50:04;;;;;;;14.55;12.07;;;17.00;60.30;;;;;;4950949;28;117138;-79
2023/05/20 10:52:38;;;;;;;15.27;13.23;;;17.00;59.80;;;;;;5001611;28;114615;-80
2023/05/20 10:55:06;;;;;;;;;;;16.90;60.10;;;;;;5002203;28;114603;-80
2023/05/20 10:57:33;;;;;;;14.52;12.32;;;16.80;60.50;;;;;;4983954;28;114794;-80
2023/05/20 11:00:04;;;;;;;12.77;11.43;;;16.80;61.30;;;;;;4985606;28;114878;-80
2023/05/20 11:02:31;;;;;;;16.40;14.25;;;17.00;61.40;;;;;;4985241;28;114313;-79
2023/05/20 11:04:59;;;;;;;15.85;13.95;;;17.00;61.10;;;;;;4985003;28;115135;-80
2023/05/20 11:07:27;;;;;;;15.48;13.73;;;17.10;60.00;;;;;;4984198;28;114914;-80
2023/05/20 11:09:57;;;;;;;16.90;15.00;;;17.10;60.90;;;;;;4984234;28;114626;-80
2023/05/20 11:12:25;;;;;;;18.02;15.27;;;17.20;61.10;;;;;;4986469;28;117051;-80
2023/05/20 11:14:52;;;;;;;17.95;15.18;;;17.20;60.80;;;;;;5001535;28;114443;-81
2023/05/20 11:17:20;;;;;;;17.05;14.68;;;17.20;61.40;;;;;;4985192;28;114869;-80
2023/05/20 11:19:47;;;;;;;16.95;14.77;;;17.20;61.80;;;;;;4985187;28;115751;-80
2023/05/20 11:22:14;;;;;;;16.42;14.13;;;17.20;61.10;;;;;;5000578;28;114298;-79
2023/05/20 11:24:45;;;;;;;17.08;15.00;;;17.20;61.00;;;;;;4985310;28;114436;-80
2023/05/20 11:27:12;;;;;;;17.08;15.25;;;17.30;61.30;;;;;;4984813;28;115295;-80
2023/05/20 11:29:40;;;;;;;16.98;14.65;;;17.20;61.40;;;;;;4985003;28;114498;-80
2023/05/20 11:32:07;;;;;;;18.17;14.93;;;17.30;61.00;;;;;;4984970;28;114638;-80
2023/05/20 11:34:36;;;;;;;16.40;14.50;;;17.20;61.20;;;;;;4985861;28;114429;-80
2023/05/20 11:37:08;;;;;;;17.73;14.65;;;17.20;61.10;;;;;;5000332;28;114910;-79
2023/05/20 11:39:36;;;;;;;19.20;15.32;;;17.30;61.20;;;;;;4984346;28;114652;-80
2023/05/20 11:42:06;;;;;;;19.50;15.75;;;17.20;60.20;;;;;;4965121;28;114578;-80
2023/05/20 11:44:33;;;;;;;17.42;15.55;;;17.20;60.70;;;;;;4986377;28;114487;-80
2023/05/20 11:47:01;;;;;;;17.75;15.85;;;17.20;61.30;;;;;;4999726;28;114929;-80
2023/05/20 11:49:29;;;;;;;22.08;17.08;;;17.20;61.30;;;;;;4983623;28;119438;-79
2023/05/20 11:51:57;;;;;;;20.33;17.73;;;17.20;61.20;;;;;;4984455;28;114690;-79
2023/05/20 11:54:25;;;;;;;21.40;17.67;;;17.10;62.00;;;;;;4996255;28;116333;-80
2023/05/20 11:56:53;;;;;;;21.42;17.80;;;17.20;62.00;;;;;;4984323;28;114834;-78
2023/05/20 11:59:22;;;;;;;20.45;17.58;;;17.30;62.20;;;;;;4984221;28;114831;-78
2023/05/20 12:01:50;;;;;;;20.02;17.88;;;17.30;62.50;;;;;;4984395;28;114556;-78
2023/05/20 12:04:24;;;;;;;22.83;20.33;;;17.40;62.10;;;;;;4984423;28;114673;-78
2023/05/20 12:06:54;;;;;;;21.50;18.58;;;17.40;62.40;;;;;;4964448;28;117454;-78
2023/05/20 12:09:22;;;;;;;23.15;18.60;;;17.40;62.40;;;;;;4992737;28;115931;-78
2023/05/20 12:11:49;;;;;;;20.83;18.63;;;17.40;62.40;;;;;;4984651;28;115172;-78
2023/05/20 12:14:16;;;;;;;20.02;17.73;;;17.40;62.40;;;;;;4984807;28;115197;-78
2023/05/20 12:16:44;;;;;;;20.13;17.65;;;17.50;61.90;;;;;;4982968;28;114876;-78
2023/05/20 12:19:11;;;;;;;21.98;19.17;;;17.50;62.50;;;;;;4983723;28;114832;-78
2023/05/20 12:21:48;;;;;;;20.02;17.13;;;17.50;62.30;;;;;;4984502;28;114322;-78
2023/05/20 12:24:15;;;;;;;20.40;17.42;;;17.60;61.40;;;;;;4992049;28;115218;-78
2023/05/20 12:26:50;;;;;;;20.20;18.05;;;17.60;62.20;;;;;;4986834;28;115017;-78